首页
METAR-TAF:

METAR-TAF

机场 :

乔莫·肯雅塔国际机场

奈洛比, 肯尼亚

纬度: 01-19S, 经度: 036-55E, 海拔: 1624米

当前天气观测

该预报发布于30分钟前的02:00 UTC
风速6节,风向北转西北
温度 18°C
湿度 94%
气压 1020 hPa
能见度10公里或以上
多云层高于1600英尺

METAR: HKJK 230200Z 34006KT 9999 BKN016 18/17 Q1020 NOSIG

时间: 05:30 (02:30 UTC)

预报

该预报发布于3小时和30分钟前的23:00 UTC
预报有效从23日的 00点(UTC)到 24日的 06点(UTC)
风速5节,风向
能见度10公里或以上
多云层高于1900英尺
短暂存在
从 23日的 00点(UTC)到 23日的 06点(UTC)
能見度: 5000
散云层高于600英尺
多云层高于1500英尺
轻雾
成为
从 23日的 08点(UTC)到 23日的 11点(UTC)
风速10节,风向东转东北
能见度10公里或以上
散云层高于2600英尺
成为
从 23日的 20点(UTC)到 23日的 23点(UTC)
风速5节,风向
多云层高于1700英尺

TAF: HKJK 222300Z 2300/2406 36005KT 9999 BKN019 TEMPO 2300/2306 5000 BR SCT006 BKN015 BECMG 2308/2311 06010KT 9999 SCT026 BECMG 2320/2323 35005KT BKN017

超过4000个机场的气象观测和天气预报(METAR&TAF报告)。

可查询的气象台以黄色和红色小点在地图上表示。

将鼠标移到小点上方,可查看气象台名称。

然后点击查看天气观测和预报。

如需切换地图:点击带黑十字的绿色按钮放大地图;点击带横线的绿色按钮缩小地图;或者点击绿色箭头查看邻近地区的地图。


METAR-TAF: